EGLT weather

Ascot Racecourse Heliport
Ascot Heath, England, United Kingdom

Public forecast

Using degrees Celsius for public forecast. Weather courtesy of forecast.io.

METAR (pilot weather report)

Closest report is London Heathrow Airport, 7.8 nm (14.5 km) ENE. Retrieved 2018/12/15 13:20 UTC (0 seconds ago):

EGLL 151320Z AUTO 13015KT 4900 -RA BKN014 BKN023 OVC045 03/01 Q1010 TEMPO 5000

TAF (pilot weather forecast)

Closest forecast is London Heathrow Airport, 7.8 nm (14.5 km) ENE. Retrieved 2018/12/15 12:00 UTC (1 hour ago):

TAF EGLL 151053Z 1512/1618 13014KT 9999 BKN025 TEMPO 1512/1519 14018G28KT 7000 RA BKN012 PROB40 TEMPO 1515/1519 3500 +RA BKN008 BECMG 1519/1521 22010KT TEMPO 1519/1522 3000 -RADZ BKN005 BECMG 1600/1603 7000 TEMPO 1603/1611 3000 BR PROB30 TEMPO 1605/1610 0400 FG VV/// BECMG 1610/1612 16010KT 9999